Time;durP1;ratioP1;P1;durP2;ratioP2;P2;SDS_P1;SDS_P2;PMS_P1;PMS_P2;Temp;Humidity;BMP_temperature;BMP_pressure;BME280_temperature;BME280_humidity;BME280_pressure;Samples;Min_cycle;Max_cycle;Signal;HPM_P1;HPM_P2
2023/09/09 00:03:29;;;;;;;;;;;;;;;19.18;97.1377;101631.6;;;;-79
2023/09/09 00:13:01;;;;;;;;;;;;;;;19.32;97.55078;101693.2;;;;-80
2023/09/09 00:13:32;;;;;;;76.6;52.8;;;;;;;;;;;;;-80
2023/09/09 00:18:08;;;;;;;;;;;;;;;19.19;99.5791;101689.9;;;;-83
2023/09/09 00:23:29;;;;;;;;;;;;;;;19.11;99.61523;101693;;;;-81
2023/09/09 00:31:10;;;;;;;;;;;;;;;19.02;99.875;101696.6;;;;-80
2023/09/09 00:36:08;;;;;;;;;;;;;;;18.98;100;101694.5;;;;-81
2023/09/09 00:41:26;;;;;;;;;;;;;;;18.93;100;101691.1;;;;-82
2023/09/09 00:43:16;;;;;;;111.3;71.8;;;;;;;;;;;;;-81
2023/09/09 00:46:27;;;;;;;;;;;;;;;18.92;100;101690.5;;;;-80
2023/09/09 00:51:10;;;;;;;;;;;;;;;18.88;99.19434;101686.9;;;;-79
2023/09/09 00:56:11;;;;;;;;;;;;;;;18.82;100;101681.5;;;;-80
2023/09/09 01:01:10;;;;;;;;;;;;;;;18.82;100;101680.2;;;;-82
2023/09/09 01:06:17;;;;;;;;;;;;;;;18.82;100;101680.8;;;;-81
2023/09/09 01:11:22;;;;;;;;;;;;;;;18.78;100;101673.2;;;;-82
2023/09/09 01:13:12;;;;;;;108.5;68.6;;;;;;;;;;;;;-81
2023/09/09 01:16:08;;;;;;;;;;;;;;;18.75;100;101674.7;;;;-81
2023/09/09 01:21:17;;;;;;;;;;;;;;;18.68;100;101672.7;;;;-83
2023/09/09 01:26:07;;;;;;;;;;;;;;;18.61;100;101668.7;;;;-82
2023/09/09 01:31:31;;;;;;;;;;;;;;;18.55;100;101666.4;;;;-83
2023/09/09 01:36:21;;;;;;;;;;;;;;;18.49;100;101665;;;;-82
2023/09/09 01:41:25;;;;;;;;;;;;;;;18.45;100;101665.3;;;;-81
2023/09/09 01:43:21;;;;;;;126.5;79.7;;;;;;;;;;;;;-83
2023/09/09 01:46:22;;;;;;;;;;;;;;;18.41;100;101666.4;;;;-83
2023/09/09 01:51:12;;;;;;;;;;;;;;;18.37;100;101666.5;;;;-83
2023/09/09 01:56:23;;;;;;;;;;;;;;;18.35;100;101666.4;;;;-83
2023/09/09 02:01:15;;;;;;;;;;;;;;;18.31;100;101665.8;;;;-80
2023/09/09 02:06:17;;;;;;;;;;;;;;;18.22;100;101660.7;;;;-82
2023/09/09 02:11:13;;;;;;;;;;;;;;;18.24;100;101665.1;;;;-81
2023/09/09 02:13:32;;;;;;;161.4;94;;;;;;;;;;;;;-81
2023/09/09 02:16:17;;;;;;;;;;;;;;;18.19;100;101658.3;;;;-82
2023/09/09 02:21:17;;;;;;;;;;;;;;;18.17;100;101661.7;;;;-82
2023/09/09 02:26:07;;;;;;;;;;;;;;;18.11;100;101660.7;;;;-82
2023/09/09 02:31:08;;;;;;;;;;;;;;;18.1;100;101663.1;;;;-80
2023/09/09 02:36:10;;;;;;;;;;;;;;;18.06;100;101661.8;;;;-81
2023/09/09 02:41:06;;;;;;;;;;;;;;;17.99;100;101663;;;;-83
2023/09/09 02:43:22;;;;;;;668.7;93.2;;;;;;;;;;;;;-81
2023/09/09 02:46:09;;;;;;;;;;;;;;;17.98;100;101658.6;;;;-82
2023/09/09 02:51:15;;;;;;;;;;;;;;;17.98;100;101658.6;;;;-82
2023/09/09 02:56:17;;;;;;;;;;;;;;;17.99;100;101658;;;;-81
2023/09/09 03:01:13;;;;;;;;;;;;;;;17.98;100;101651.4;;;;-81
2023/09/09 03:06:06;;;;;;;;;;;;;;;17.96;100;101654.2;;;;-82
2023/09/09 03:11:07;;;;;;;;;;;;;;;17.98;100;101658.8;;;;-82
2023/09/09 03:13:38;;;;;;;450.5;56.2;;;;;;;;;;;;;-82
2023/09/09 03:16:13;;;;;;;;;;;;;;;17.8;100;101621.4;;;;-81
2023/09/09 03:21:06;;;;;;;;;;;;;;;17.97;100;101647.1;;;;-84
2023/09/09 03:26:18;;;;;;;;;;;;;;;18.05;100;101655.6;;;;-81
2023/09/09 03:31:06;;;;;;;;;;;;;;;18.06;100;101656.4;;;;-81
2023/09/09 03:36:09;;;;;;;;;;;;;;;18.04;100;101656.1;;;;-81
2023/09/09 03:43:29;;;;;;;752.7;59.8;;;;;;;;;;;;;-80
2023/09/09 03:46:20;;;;;;;;;;;;;;;18.07;100;101658.5;;;;-83
2023/09/09 03:51:07;;;;;;;;;;;;;;;18.04;100;101661.6;;;;-81
2023/09/09 03:56:11;;;;;;;;;;;;;;;18;100;101661.8;;;;-81
2023/09/09 04:01:18;;;;;;;;;;;;;;;17.93;100;101656.9;;;;-82
2023/09/09 04:11:06;;;;;;;;;;;;;;;17.86;100;101652.1;;;;-82
2023/09/09 04:13:27;;;;;;;148.9;44.8;;;;;;;;;;;;;-81
2023/09/09 04:16:06;;;;;;;;;;;;;;;17.84;100;101653.7;;;;-82
2023/09/09 04:21:13;;;;;;;;;;;;;;;17.84;100;101657.6;;;;-82
2023/09/09 04:26:07;;;;;;;;;;;;;;;17.78;100;101663;;;;-82
2023/09/09 04:31:10;;;;;;;;;;;;;;;17.64;100;101664.2;;;;-83
2023/09/09 04:36:06;;;;;;;;;;;;;;;17.52;100;101671.4;;;;-81
2023/09/09 04:41:13;;;;;;;;;;;;;;;17.52;100;101679.2;;;;-82
2023/09/09 04:43:44;;;;;;;828.7;46.6;;;;;;;;;;;;;-82
2023/09/09 04:46:18;;;;;;;;;;;;;;;17.43;100;101684.6;;;;-81
2023/09/09 04:56:15;;;;;;;;;;;;;;;17.42;100;101690.4;;;;-81
2023/09/09 05:01:16;;;;;;;;;;;;;;;17.42;100;101691.1;;;;-82
2023/09/09 05:06:08;;;;;;;;;;;;;;;17.42;100;101692.9;;;;-81
2023/09/09 05:11:07;;;;;;;;;;;;;;;17.44;100;101689.2;;;;-81
2023/09/09 05:13:32;;;;;;;964.7;61.6;;;;;;;;;;;;;-79
2023/09/09 05:16:06;;;;;;;;;;;;;;;17.48;100;101685.4;;;;-80
2023/09/09 05:21:07;;;;;;;;;;;;;;;17.5;100;101693.5;;;;-81
2023/09/09 05:26:06;;;;;;;;;;;;;;;17.56;100;101696.1;;;;-82
2023/09/09 05:31:13;;;;;;;;;;;;;;;17.58;100;101700.5;;;;-81
2023/09/09 05:36:15;;;;;;;;;;;;;;;17.57;100;101698.8;;;;-81
2023/09/09 05:41:09;;;;;;;;;;;;;;;17.61;100;101700.2;;;;-82
2023/09/09 05:47:59;;;;;;;;;;;;;;;17.58;100;101698.1;;;;-81
2023/09/09 05:52:57;;;;;;;;;;;;;;;17.58;100;101701;;;;-82
2023/09/09 05:58:06;;;;;;;;;;;;;;;17.66;100;101699.9;;;;-81
2023/09/09 06:02:56;;;;;;;;;;;;;;;17.78;100;101706;;;;-81
2023/09/09 06:07:56;;;;;;;;;;;;;;;17.9;100;101705.1;;;;-80
2023/09/09 06:12:54;;;;;;;;;;;;;;;18.05;100;101716;;;;-81
2023/09/09 06:13:49;;;;;;;345.4;58.6;;;;;;;;;;;;;-80
2023/09/09 06:17:57;;;;;;;;;;;;;;;18.1;100;101723.5;;;;-81
2023/09/09 06:28:00;;;;;;;;;;;;;;;17.75;100;101723.8;;;;-82
2023/09/09 06:32:49;;;;;;;;;;;;;;;17.94;100;101732;;;;-81
2023/09/09 06:37:47;;;;;;;;;;;;;;;18.26;100;101739.1;;;;-81
2023/09/09 06:42:47;;;;;;;;;;;;;;;18.68;100;101747.8;;;;-81
2023/09/09 06:43:44;;;;;;;101.5;44.2;;;;;;;;;;;;;-81
2023/09/09 06:48:00;;;;;;;;;;;;;;;19.02;100;101747.1;;;;-81
2023/09/09 06:52:49;;;;;;;;;;;;;;;19.32;100;101750.5;;;;-81
2023/09/09 06:58:00;;;;;;;;;;;;;;;19.76;100;101748.8;;;;-83
2023/09/09 07:02:55;;;;;;;;;;;;;;;20.15;100;101751.9;;;;-82
2023/09/09 07:16:47;;;;;;;;;;;;;;;21.01;100;101754.9;;;;-81
2023/09/09 07:21:38;;;;;;;;;;;;;;;21.25;99.63965;101762.8;;;;-80
2023/09/09 07:26:55;;;;;;;;;;;;;;;21.29;99.66113;101772.4;;;;-80
2023/09/09 07:40:23;;;;;;;;;;;;;;;21.57;100;101771.6;;;;-81
2023/09/09 07:43:48;;;;;;;104.6;69.8;;;;;;;;;;;;;-79
2023/09/09 07:45:03;;;;;;;;;;;;;;;21.83;98.45996;101774.3;;;;-81
2023/09/09 07:50:07;;;;;;;;;;;;;;;22.12;97.52734;101779.4;;;;-83
2023/09/09 07:55:03;;;;;;;;;;;;;;;22.38;94.37305;101779.7;;;;-79
2023/09/09 08:00:05;;;;;;;;;;;;;;;22.57;88.6543;101788.6;;;;-79
2023/09/09 08:05:03;;;;;;;;;;;;;;;22.91;88.22266;101786.5;;;;-81
2023/09/09 08:10:03;;;;;;;;;;;;;;;23.16;83.18848;101785.3;;;;-81
2023/09/09 08:13:52;;;;;;;53.8;38.5;;;;;;;;;;;;;-81
2023/09/09 08:15:13;;;;;;;;;;;;;;;23.41;83.22461;101789.8;;;;-81
2023/09/09 08:20:06;;;;;;;;;;;;;;;23.74;81.25488;101797.2;;;;-80
2023/09/09 08:25:03;;;;;;;;;;;;;;;24.03;80.97656;101796.9;;;;-80
2023/09/09 08:30:06;;;;;;;;;;;;;;;24.36;79.1875;101797.1;;;;-80
2023/09/09 08:35:05;;;;;;;;;;;;;;;24.61;77.83594;101796;;;;-82
2023/09/09 08:40:03;;;;;;;;;;;;;;;24.69;75.92773;101787.9;;;;-79
2023/09/09 08:44:00;;;;;;;42.8;31.9;;;;;;;;;;;;;-81
2023/09/09 08:45:09;;;;;;;;;;;;;;;25.1;75.51855;101803.9;;;;-80
2023/09/09 08:50:04;;;;;;;;;;;;;;;25.42;71.13184;101806.2;;;;-81
2023/09/09 08:55:04;;;;;;;;;;;;;;;25.77;68.17871;101807.4;;;;-82
2023/09/09 09:00:05;;;;;;;;;;;;;;;26.07;66.61035;101798;;;;-81
2023/09/09 09:05:06;;;;;;;;;;;;;;;26.47;63.4209;101805.8;;;;-81
2023/09/09 09:10:03;;;;;;;;;;;;;;;26.67;61.22266;101803;;;;-80
2023/09/09 09:14:08;;;;;;;21.1;15.2;;;;;;;;;;;;;-81
2023/09/09 09:15:03;;;;;;;;;;;;;;;26.81;58.87305;101805.1;;;;-81
2023/09/09 09:20:03;;;;;;;;;;;;;;;27.08;56.7002;101804;;;;-81
2023/09/09 09:25:08;;;;;;;;;;;;;;;27.27;57.55566;101811.3;;;;-82
2023/09/09 09:30:03;;;;;;;;;;;;;;;27.57;53.78418;101815.1;;;;-82
2023/09/09 09:35:04;;;;;;;;;;;;;;;28.03;53.79102;101818.4;;;;-80
2023/09/09 09:40:04;;;;;;;;;;;;;;;28.27;54.6084;101815.6;;;;-81
2023/09/09 09:44:05;;;;;;;14.2;11.1;;;;;;;;;;;;;-81
2023/09/09 09:45:11;;;;;;;;;;;;;;;28.49;53.42871;101817.7;;;;-81
2023/09/09 09:50:06;;;;;;;;;;;;;;;28.68;53.56641;101818.7;;;;-79
2023/09/09 09:55:07;;;;;;;;;;;;;;;28.94;51.68945;101821.4;;;;-80
2023/09/09 10:00:07;;;;;;;;;;;;;;;29.12;51.39648;101823.1;;;;-79
2023/09/09 10:05:18;;;;;;;;;;;;;;;29.39;50.4375;101820.8;;;;-80
2023/09/09 10:10:04;;;;;;;;;;;;;;;29.6;47.26465;101817.4;;;;-80
2023/09/09 10:14:16;;;;;;;15.4;12.6;;;;;;;;;;;;;-79
2023/09/09 10:15:04;;;;;;;;;;;;;;;29.65;50.65137;101814.1;;;;-79
2023/09/09 10:20:05;;;;;;;;;;;;;;;29.68;49.41895;101811.8;;;;-79
2023/09/09 10:25:04;;;;;;;;;;;;;;;30.24;47.62402;101808.8;;;;-79
2023/09/09 10:30:04;;;;;;;;;;;;;;;30.52;47.19629;101807.8;;;;-80
2023/09/09 10:35:06;;;;;;;;;;;;;;;30.6;46.90137;101805.3;;;;-80
2023/09/09 10:40:07;;;;;;;;;;;;;;;30.56;46.69824;101802.1;;;;-80
2023/09/09 10:44:15;;;;;;;19.8;14.9;;;;;;;;;;;;;-81
2023/09/09 10:45:13;;;;;;;;;;;;;;;30.86;46.00391;101804.3;;;;-80
2023/09/09 10:50:10;;;;;;;;;;;;;;;30.78;45.0127;101796;;;;-79
2023/09/09 10:55:19;;;;;;;;;;;;;;;31.02;45.43457;101800.2;;;;-80
2023/09/09 11:00:09;;;;;;;;;;;;;;;31.28;44.38281;101799.5;;;;-80
2023/09/09 11:05:15;;;;;;;;;;;;;;;31.52;45.01465;101798.1;;;;-80
2023/09/09 11:10:21;;;;;;;;;;;;;;;31.83;44.28418;101800.3;;;;-84
2023/09/09 11:14:31;;;;;;;15.4;9.8;;;;;;;;;;;;;-78
2023/09/09 11:20:13;;;;;;;;;;;;;;;32.1;41.53809;101797.2;;;;-79
2023/09/09 11:30:07;;;;;;;;;;;;;;;32.16;41.69629;101794.9;;;;-79
2023/09/09 11:35:16;;;;;;;;;;;;;;;31.77;41.50781;101796.8;;;;-79
2023/09/09 11:40:06;;;;;;;;;;;;;;;31.58;41.5957;101784.7;;;;-80
2023/09/09 11:44:32;;;;;;;12.6;6.3;;;;;;;;;;;;;-80
2023/09/09 11:45:23;;;;;;;;;;;;;;;32.1;40.83301;101787.3;;;;-79
2023/09/09 12:00:22;;;;;;;;;;;;;;;32.97;37.31738;101777.7;;;;-79
2023/09/09 12:05:16;;;;;;;;;;;;;;;33.35;38.00977;101775.7;;;;-78
2023/09/09 12:10:14;;;;;;;;;;;;;;;33.56;36.68066;101774.1;;;;-80
2023/09/09 12:14:33;;;;;;;10.4;6.1;;;;;;;;;;;;;-80
2023/09/09 12:15:05;;;;;;;;;;;;;;;33.21;36.81836;101779;;;;-80
2023/09/09 12:20:05;;;;;;;;;;;;;;;33.04;37.08789;101779.3;;;;-81
2023/09/09 12:25:03;;;;;;;;;;;;;;;33.06;37.04102;101781.9;;;;-81
2023/09/09 12:30:03;;;;;;;;;;;;;;;33.39;38.08398;101782.7;;;;-80
2023/09/09 12:35:04;;;;;;;;;;;;;;;33.39;36.05371;101784;;;;-81
2023/09/09 12:40:06;;;;;;;;;;;;;;;33.12;36.66895;101784;;;;-80
2023/09/09 12:44:49;;;;;;;12.6;6;;;;;;;;;;;;;-80
2023/09/09 12:45:03;;;;;;;;;;;;;;;33.13;37.17676;101783.7;;;;-78
2023/09/09 12:50:03;;;;;;;;;;;;;;;33.27;36.74023;101782.8;;;;-81
2023/09/09 12:55:03;;;;;;;;;;;;;;;33.46;36.74414;101789.6;;;;-79
2023/09/09 13:00:09;;;;;;;;;;;;;;;33.3;36.86035;101787;;;;-79
2023/09/09 13:05:06;;;;;;;;;;;;;;;33.29;36.17578;101794.1;;;;-83
2023/09/09 13:14:48;;;;;;;11.6;5.1;;;;;;;;;;;;;-83
2023/09/09 13:18:31;;;;;;;;;;;;;;;33.47;35.82422;101784.6;;;;-82
2023/09/09 13:23:27;;;;;;;;;;;;;;;33.54;37.24609;101785.1;;;;-82
2023/09/09 13:28:30;;;;;;;;;;;;;;;33.85;36.17285;101782.1;;;;-83
2023/09/09 13:33:28;;;;;;;;;;;;;;;33.88;35.27637;101779.6;;;;-83
2023/09/09 13:38:32;;;;;;;;;;;;;;;33.86;35.81836;101779.2;;;;-82
2023/09/09 13:43:34;;;;;;;;;;;;;;;33.99;35.73535;101771.6;;;;-82
2023/09/09 13:44:56;;;;;;;9.8;5.1;;;;;;;;;;;;;-83
2023/09/09 13:48:33;;;;;;;;;;;;;;;33.81;35.08301;101772.5;;;;-83
2023/09/09 13:53:27;;;;;;;;;;;;;;;33.59;34.94824;101760.3;;;;-79
2023/09/09 13:58:27;;;;;;;;;;;;;;;33.86;35.12207;101762.9;;;;-81
2023/09/09 14:03:27;;;;;;;;;;;;;;;33.95;34.25488;101762.4;;;;-81
2023/09/09 14:08:27;;;;;;;;;;;;;;;34.12;33.99512;101760;;;;-83
2023/09/09 14:13:29;;;;;;;;;;;;;;;34.33;33.76172;101767;;;;-83
2023/09/09 14:14:59;;;;;;;9.3;5.2;;;;;;;;;;;;;-83
2023/09/09 14:18:27;;;;;;;;;;;;;;;34.32;33.77246;101763.7;;;;-83
2023/09/09 14:23:27;;;;;;;;;;;;;;;34.23;33.88477;101757.4;;;;-80
2023/09/09 14:28:27;;;;;;;;;;;;;;;34.15;34.11523;101753.4;;;;-82
2023/09/09 14:33:28;;;;;;;;;;;;;;;34.13;34.58691;101751.4;;;;-80
2023/09/09 14:38:27;;;;;;;;;;;;;;;34.12;34.82324;101751.1;;;;-81
2023/09/09 14:43:27;;;;;;;;;;;;;;;34.09;34.69043;101754.7;;;;-82
2023/09/09 14:45:09;;;;;;;10.8;4.8;;;;;;;;;;;;;-81
2023/09/09 14:48:27;;;;;;;;;;;;;;;34.2;34.72266;101759;;;;-83
2023/09/09 14:53:30;;;;;;;;;;;;;;;34.25;34.43066;101757.6;;;;-82
2023/09/09 14:58:28;;;;;;;;;;;;;;;34.15;35.19141;101753.4;;;;-82
2023/09/09 15:03:26;;;;;;;;;;;;;;;33.94;35.9082;101751.5;;;;-82
2023/09/09 15:08:29;;;;;;;;;;;;;;;33.88;36.02148;101745.1;;;;-82
2023/09/09 15:13:27;;;;;;;;;;;;;;;33.74;35.47949;101727.6;;;;-82
2023/09/09 15:15:13;;;;;;;11.9;5.1;;;;;;;;;;;;;-83
2023/09/09 15:18:29;;;;;;;;;;;;;;;33.75;35.64551;101739;;;;-83
2023/09/09 15:23:39;;;;;;;;;;;;;;;33.63;36.42676;101743.4;;;;-81
2023/09/09 15:28:39;;;;;;;;;;;;;;;33.57;36.06738;101741;;;;-81
2023/09/09 15:33:34;;;;;;;;;;;;;;;33.36;36.46484;101738.8;;;;-82
2023/09/09 15:38:45;;;;;;;;;;;;;;;33.3;37.23828;101736.7;;;;-81
2023/09/09 15:43:28;;;;;;;;;;;;;;;33.2;37.23047;101735.5;;;;-80
2023/09/09 15:45:25;;;;;;;11.9;5.2;;;;;;;;;;;;;-79
2023/09/09 15:48:29;;;;;;;;;;;;;;;33.26;37.89551;101731.6;;;;-81
2023/09/09 15:53:27;;;;;;;;;;;;;;;33.6;37.3457;101735.6;;;;-81
2023/09/09 15:58:40;;;;;;;;;;;;;;;34.04;36.42383;101733;;;;-82
2023/09/09 16:03:28;;;;;;;;;;;;;;;33.65;37.11328;101731.2;;;;-81
2023/09/09 16:08:27;;;;;;;;;;;;;;;33.28;37.67285;101729.6;;;;-82
2023/09/09 16:13:30;;;;;;;;;;;;;;;33.03;38.73633;101729.3;;;;-81
2023/09/09 16:15:26;;;;;;;11.8;5.9;;;;;;;;;;;;;-81
2023/09/09 16:18:29;;;;;;;;;;;;;;;32.8;39.25977;101725.3;;;;-81
2023/09/09 16:23:27;;;;;;;;;;;;;;;32.57;39.70996;101726.8;;;;-81
2023/09/09 16:28:28;;;;;;;;;;;;;;;31.97;42.87695;101735.5;;;;-82
2023/09/09 16:33:28;;;;;;;;;;;;;;;31.04;44.79297;101734.8;;;;-81
2023/09/09 16:38:28;;;;;;;;;;;;;;;30.58;45.63574;101732.8;;;;-83
2023/09/09 16:43:28;;;;;;;;;;;;;;;30.32;46.37012;101729.9;;;;-81
2023/09/09 16:45:32;;;;;;;15.1;9.3;;;;;;;;;;;;;-82
2023/09/09 16:48:27;;;;;;;;;;;;;;;30.15;48.62891;101730.8;;;;-81
2023/09/09 16:53:27;;;;;;;;;;;;;;;29.61;52.24414;101734.3;;;;-82
2023/09/09 16:58:27;;;;;;;;;;;;;;;29.27;50.9707;101740.2;;;;-81
2023/09/09 17:03:27;;;;;;;;;;;;;;;28.78;53.11426;101747.7;;;;-82
2023/09/09 17:08:33;;;;;;;;;;;;;;;28.7;54.20801;101747.8;;;;-82
2023/09/09 17:13:36;;;;;;;;;;;;;;;28.39;53.83496;101745.5;;;;-86
2023/09/09 17:15:45;;;;;;;25.6;12.4;;;;;;;;;;;;;-85
2023/09/09 17:18:29;;;;;;;;;;;;;;;28.25;53.19043;101751.1;;;;-86
2023/09/09 17:23:37;;;;;;;;;;;;;;;28.19;53.11426;101759.8;;;;-84
2023/09/09 17:28:43;;;;;;;;;;;;;;;28.02;55.18262;101767.6;;;;-85
2023/09/09 17:33:38;;;;;;;;;;;;;;;27.9;55.57422;101762.6;;;;-85
2023/09/09 17:38:48;;;;;;;;;;;;;;;27.9;55.45801;101760.8;;;;-84
2023/09/09 17:43:43;;;;;;;;;;;;;;;27.91;55.03027;101756.8;;;;-85
2023/09/09 17:48:38;;;;;;;;;;;;;;;27.9;54.68066;101759.9;;;;-85
2023/09/09 17:53:30;;;;;;;;;;;;;;;27.87;54.31836;101763.6;;;;-85
2023/09/09 17:58:45;;;;;;;;;;;;;;;27.75;54.77832;101764.5;;;;-86
2023/09/09 18:03:40;;;;;;;;;;;;;;;27.62;54.28809;101770;;;;-86
2023/09/09 18:08:30;;;;;;;;;;;;;;;27.46;55.4375;101765.2;;;;-86
2023/09/09 18:13:33;;;;;;;;;;;;;;;27.29;55.92773;101764.7;;;;-86
2023/09/09 18:15:56;;;;;;;15.6;10.3;;;;;;;;;;;;;-86
2023/09/09 18:18:35;;;;;;;;;;;;;;;27.17;56.16602;101768.9;;;;-86
2023/09/09 18:23:39;;;;;;;;;;;;;;;27.03;56.20703;101772;;;;-85
2023/09/09 18:28:34;;;;;;;;;;;;;;;26.89;56.87109;101776.8;;;;-85
2023/09/09 18:33:37;;;;;;;;;;;;;;;26.76;57.85059;101779.7;;;;-87
2023/09/09 18:38:35;;;;;;;;;;;;;;;26.56;57.70801;101779.3;;;;-85
2023/09/09 18:45:53;;;;;;;13.3;10.4;;;;;;;;;;;;;-78
2023/09/09 18:47:11;;;;;;;;;;;;;;;26.34;59.9668;101786.4;;;;-77
2023/09/09 18:52:11;;;;;;;;;;;;;;;26.2;60.77734;101792.3;;;;-79
2023/09/09 18:57:14;;;;;;;;;;;;;;;26.05;61.25391;101795;;;;-80
2023/09/09 19:02:11;;;;;;;;;;;;;;;25.85;63.12695;101794.2;;;;-78
2023/09/09 19:07:12;;;;;;;;;;;;;;;25.71;62.96875;101806.9;;;;-79
2023/09/09 19:12:11;;;;;;;;;;;;;;;25.52;63.83887;101805.9;;;;-78
2023/09/09 19:15:56;;;;;;;14.7;10.5;;;;;;;;;;;;;-79
2023/09/09 19:17:12;;;;;;;;;;;;;;;25.41;62.78906;101814.5;;;;-78
2023/09/09 19:22:11;;;;;;;;;;;;;;;25.31;62.55762;101816.9;;;;-80
2023/09/09 19:27:11;;;;;;;;;;;;;;;25.22;63.98242;101816.1;;;;-79
2023/09/09 19:32:11;;;;;;;;;;;;;;;25.11;64.98828;101820.7;;;;-79
2023/09/09 19:37:11;;;;;;;;;;;;;;;24.97;65.47363;101814.9;;;;-79
2023/09/09 19:49:31;;;;;;;;;;;;;;;24.74;66.81738;101826.6;;;;-80
2023/09/09 19:54:30;;;;;;;;;;;;;;;24.62;67.99316;101819.6;;;;-81
2023/09/09 19:59:32;;;;;;;;;;;;;;;24.53;67.38281;101827.8;;;;-81
2023/09/09 20:04:30;;;;;;;;;;;;;;;24.46;66.93652;101835.5;;;;-80
2023/09/09 20:09:31;;;;;;;;;;;;;;;24.34;70.22852;101836.8;;;;-81
2023/09/09 20:14:30;;;;;;;;;;;;;;;24.13;73.11523;101848.4;;;;-80
2023/09/09 20:16:05;;;;;;;17.6;13.8;;;;;;;;;;;;;-80
2023/09/09 20:19:30;;;;;;;;;;;;;;;23.91;72.87402;101848.1;;;;-81
2023/09/09 20:24:30;;;;;;;;;;;;;;;23.76;74.04883;101847.7;;;;-80
2023/09/09 20:29:30;;;;;;;;;;;;;;;23.67;73.29102;101841.9;;;;-80
2023/09/09 20:34:30;;;;;;;;;;;;;;;23.58;72.28223;101843.7;;;;-81
2023/09/09 20:39:30;;;;;;;;;;;;;;;23.47;74.72949;101841.5;;;;-80
2023/09/09 20:44:31;;;;;;;;;;;;;;;23.39;74.5918;101836.3;;;;-80
2023/09/09 20:46:15;;;;;;;18.5;12.8;;;;;;;;;;;;;-81
2023/09/09 20:49:30;;;;;;;;;;;;;;;23.33;77.28809;101840.1;;;;-79
2023/09/09 20:54:33;;;;;;;;;;;;;;;23.31;77.99023;101840.2;;;;-81
2023/09/09 20:59:30;;;;;;;;;;;;;;;23.26;76.25879;101839;;;;-80
2023/09/09 21:04:31;;;;;;;;;;;;;;;23.24;77.54395;101844.7;;;;-80
2023/09/09 21:09:30;;;;;;;;;;;;;;;23.22;75.99023;101838.2;;;;-83
2023/09/09 21:14:30;;;;;;;;;;;;;;;23.21;81.24023;101835.5;;;;-82
2023/09/09 21:16:15;;;;;;;20.8;15.3;;;;;;;;;;;;;-82
2023/09/09 21:19:33;;;;;;;;;;;;;;;23.15;80.05859;101832.9;;;;-80
2023/09/09 21:24:31;;;;;;;;;;;;;;;23.13;81.23828;101840.1;;;;-81
2023/09/09 21:29:36;;;;;;;;;;;;;;;23.11;80.74414;101843.9;;;;-82
2023/09/09 21:34:30;;;;;;;;;;;;;;;23.07;79.95215;101849.3;;;;-81
2023/09/09 21:39:30;;;;;;;;;;;;;;;23;79.80371;101844.6;;;;-81
2023/09/09 21:44:30;;;;;;;;;;;;;;;22.95;82.00195;101835.7;;;;-81
2023/09/09 21:46:17;;;;;;;16.5;13.8;;;;;;;;;;;;;-81
2023/09/09 21:49:31;;;;;;;;;;;;;;;22.88;82.5127;101838.2;;;;-80
2023/09/09 21:54:33;;;;;;;;;;;;;;;22.81;83.77344;101836.5;;;;-82
2023/09/09 21:59:30;;;;;;;;;;;;;;;22.77;82.82129;101832.9;;;;-82
2023/09/09 22:04:32;;;;;;;;;;;;;;;22.73;84.96191;101829.6;;;;-81
2023/09/09 22:09:32;;;;;;;;;;;;;;;22.66;84.66602;101832.8;;;;-81
2023/09/09 22:14:31;;;;;;;;;;;;;;;22.54;84.52832;101822.4;;;;-82
2023/09/09 22:16:21;;;;;;;26.6;19.2;;;;;;;;;;;;;-81
2023/09/09 22:19:30;;;;;;;;;;;;;;;22.53;88.60156;101833.6;;;;-82
2023/09/09 22:24:57;;;;;;;;;;;;;;;22.46;88.84961;101834.1;;;;-84
2023/09/09 22:38:23;;;;;;;;;;;;;;;22.33;87.9043;101835.5;;;;-80
2023/09/09 22:43:41;;;;;;;;;;;;;;;22.31;88.34082;101832.9;;;;-81
2023/09/09 22:46:43;;;;;;;30;21.2;;;;;;;;;;;;;-82
2023/09/09 22:48:23;;;;;;;;;;;;;;;22.28;91.41992;101827;;;;-80
2023/09/09 22:53:26;;;;;;;;;;;;;;;22.26;92.36523;101830.6;;;;-80
2023/09/09 22:58:25;;;;;;;;;;;;;;;22.2;87.3916;101828;;;;-81
2023/09/09 23:03:31;;;;;;;;;;;;;;;22.17;90.37793;101827.3;;;;-81
2023/09/09 23:08:35;;;;;;;;;;;;;;;22.09;87.97168;101825.3;;;;-81
2023/09/09 23:13:41;;;;;;;;;;;;;;;22.05;91.75684;101829.8;;;;-83
2023/09/09 23:16:35;;;;;;;26.8;19.9;;;;;;;;;;;;;-81
2023/09/09 23:18:18;;;;;;;;;;;;;;;21.96;90.61914;101821.8;;;;-80
2023/09/09 23:23:20;;;;;;;;;;;;;;;21.9;91.56836;101820.4;;;;-80
2023/09/09 23:28:32;;;;;;;;;;;;;;;21.83;94.02148;101817.7;;;;-82
2023/09/09 23:33:25;;;;;;;;;;;;;;;21.79;95.69531;101821;;;;-80
2023/09/09 23:38:41;;;;;;;;;;;;;;;21.77;94.86523;101825.4;;;;-80
2023/09/09 23:43:30;;;;;;;;;;;;;;;21.75;95.37012;101831;;;;-80
2023/09/09 23:46:42;;;;;;;33.3;23.8;;;;;;;;;;;;;-80
2023/09/09 23:48:28;;;;;;;;;;;;;;;21.7;94.78418;101827.6;;;;-81
2023/09/09 23:53:23;;;;;;;;;;;;;;;21.65;94.02637;101832.9;;;;-80
2023/09/09 23:58:30;;;;;;;;;;;;;;;;;;;;;
